sensor_id;sensor_type;location;lat;lon;timestamp;pressure;altitude;pressure_sealevel;temperature;humidity
63665;BME280;49820;33.966;73.390;2023-04-21T02:19:04;78470.03;;;11.33;100.00
63665;BME280;49820;33.966;73.390;2023-04-21T02:28:06;78467.88;;;12.97;100.00
63665;BME280;49820;33.966;73.390;2023-04-21T02:35:21;78481.69;;;13.96;100.00
63665;BME280;49820;33.966;73.390;2023-04-21T02:41:59;78485.88;;;14.26;100.00
63665;BME280;49820;33.966;73.390;2023-04-21T02:45:04;78488.38;;;14.97;100.00
63665;BME280;49820;33.966;73.390;2023-04-21T02:47:50;78497.34;;;14.92;96.41
63665;BME280;49820;33.966;73.390;2023-04-21T02:50:54;78480.28;;;15.14;98.91
63665;BME280;49820;33.966;73.390;2023-04-21T02:53:23;78487.91;;;15.24;100.00
63665;BME280;49820;33.966;73.390;2023-04-21T02:56:27;78506.69;;;15.41;97.01
63665;BME280;49820;33.966;73.390;2023-04-21T02:59:14;78481.06;;;15.42;99.37
63665;BME280;49820;33.966;73.390;2023-04-21T03:02:18;78498.53;;;15.43;88.93
63665;BME280;49820;33.966;73.390;2023-04-21T03:07:40;78506.84;;;15.99;90.88
63665;BME280;49820;33.966;73.390;2023-04-21T03:10:10;78503.03;;;16.09;84.62
63665;BME280;49820;33.966;73.390;2023-04-21T03:12:57;78512.88;;;16.15;90.81
63665;BME280;49820;33.966;73.390;2023-04-21T03:16:01;78524.63;;;16.68;77.83
63665;BME280;49820;33.966;73.390;2023-04-21T03:18:33;78532.72;;;16.68;71.17
63665;BME280;49820;33.966;73.390;2023-04-21T03:21:38;78526.97;;;16.61;78.65
63665;BME280;49820;33.966;73.390;2023-04-21T03:24:07;78536.72;;;17.26;84.37
63665;BME280;49820;33.966;73.390;2023-04-21T03:27:11;78538.03;;;17.27;80.36
63665;BME280;49820;33.966;73.390;2023-04-21T03:29:40;78534.88;;;17.49;81.15
63665;BME280;49820;33.966;73.390;2023-04-21T03:32:43;78536.78;;;17.66;83.14
63665;BME280;49820;33.966;73.390;2023-04-21T03:35:47;78534.06;;;17.93;85.74
63665;BME280;49820;33.966;73.390;2023-04-21T03:38:51;78565.06;;;18.87;75.25
63665;BME280;49820;33.966;73.390;2023-04-21T03:41:55;78544.34;;;19.06;85.00
63665;BME280;49820;33.966;73.390;2023-04-21T03:44:27;78555.47;;;18.37;72.73
63665;BME280;49820;33.966;73.390;2023-04-21T03:47:31;78569.28;;;16.04;77.82
63665;BME280;49820;33.966;73.390;2023-04-21T03:50:37;78578.94;;;16.14;82.55
63665;BME280;49820;33.966;73.390;2023-04-21T03:53:40;78550.78;;;14.33;74.48
63665;BME280;49820;33.966;73.390;2023-04-21T03:56:44;78560.22;;;13.42;91.68
63665;BME280;49820;33.966;73.390;2023-04-21T03:59:31;78555.19;;;13.32;98.71
63665;BME280;49820;33.966;73.390;2023-04-21T04:02:36;78583.13;;;13.77;86.47
63665;BME280;49820;33.966;73.390;2023-04-21T04:05:39;78558.31;;;14.28;94.78
63665;BME280;49820;33.966;73.390;2023-04-21T04:08:43;78570.25;;;16.13;95.52
63665;BME280;49820;33.966;73.390;2023-04-21T04:11:31;78550.28;;;16.52;95.07
63665;BME280;49820;33.966;73.390;2023-04-21T04:14:00;78583.06;;;17.30;88.69
63665;BME280;49820;33.966;73.390;2023-04-21T04:16:29;78574.81;;;17.47;93.06
63665;BME280;49820;33.966;73.390;2023-04-21T04:19:16;78573.72;;;18.64;87.99
63665;BME280;49820;33.966;73.390;2023-04-21T04:22:20;78575.09;;;18.10;83.84
63665;BME280;49820;33.966;73.390;2023-04-21T04:25:07;78590.69;;;15.77;75.63
63665;BME280;49820;33.966;73.390;2023-04-21T04:27:55;78592.53;;;14.65;81.18
63665;BME280;49820;33.966;73.390;2023-04-21T04:30:59;78589.25;;;14.10;85.30
63665;BME280;49820;33.966;73.390;2023-04-21T04:33:28;78580.84;;;14.02;82.41
63665;BME280;49820;33.966;73.390;2023-04-21T04:36:32;78600.38;;;13.82;83.44
63665;BME280;49820;33.966;73.390;2023-04-21T04:39:36;78614.09;;;13.36;95.27
63665;BME280;49820;33.966;73.390;2023-04-21T04:42:22;78605.34;;;14.65;100.00
63665;BME280;49820;33.966;73.390;2023-04-21T04:45:09;78601.25;;;15.33;99.72
63665;BME280;49820;33.966;73.390;2023-04-21T04:48:13;78603.53;;;14.05;90.16
63665;BME280;49820;33.966;73.390;2023-04-21T04:51:18;78608.84;;;14.07;95.36
63665;BME280;49820;33.966;73.390;2023-04-21T04:54:03;78599.84;;;15.50;100.00
63665;BME280;49820;33.966;73.390;2023-04-21T04:57:07;78615.50;;;17.01;100.00
63665;BME280;49820;33.966;73.390;2023-04-21T05:00:11;78588.66;;;17.11;95.07
63665;BME280;49820;33.966;73.390;2023-04-21T05:03:17;78630.03;;;16.47;92.01
63665;BME280;49820;33.966;73.390;2023-04-21T05:06:21;78609.41;;;15.31;84.90
63665;BME280;49820;33.966;73.390;2023-04-21T05:09:25;78612.19;;;15.12;92.25
63665;BME280;49820;33.966;73.390;2023-04-21T05:11:54;78631.06;;;14.76;82.88
63665;BME280;49820;33.966;73.390;2023-04-21T05:14:58;78620.72;;;14.49;92.65
63665;BME280;49820;33.966;73.390;2023-04-21T05:17:45;78614.44;;;14.55;90.03
63665;BME280;49820;33.966;73.390;2023-04-21T05:20:49;78639.28;;;13.83;95.98
63665;BME280;49820;33.966;73.390;2023-04-21T05:23:57;78627.88;;;13.05;100.00
63665;BME280;49820;33.966;73.390;2023-04-21T05:27:01;78631.75;;;12.69;100.00
63665;BME280;49820;33.966;73.390;2023-04-21T05:29:48;78628.09;;;12.78;100.00
63665;BME280;49820;33.966;73.390;2023-04-21T05:32:52;78617.75;;;12.66;100.00
63665;BME280;49820;33.966;73.390;2023-04-21T05:35:56;78614.88;;;12.51;100.00
63665;BME280;49820;33.966;73.390;2023-04-21T05:39:00;78627.28;;;12.82;100.00
63665;BME280;49820;33.966;73.390;2023-04-21T05:42:04;78612.19;;;12.51;100.00
63665;BME280;49820;33.966;73.390;2023-04-21T05:45:09;78600.63;;;12.78;100.00
63665;BME280;49820;33.966;73.390;2023-04-21T05:47:38;78603.91;;;12.39;88.34
63665;BME280;49820;33.966;73.390;2023-04-21T05:50:08;78586.25;;;12.04;90.30
63665;BME280;49820;33.966;73.390;2023-04-21T05:52:55;78624.63;;;11.97;95.11
63665;BME280;49820;33.966;73.390;2023-04-21T05:55:59;78610.41;;;11.57;100.00
63665;BME280;49820;33.966;73.390;2023-04-21T05:59:03;78612.47;;;11.31;100.00
63665;BME280;49820;33.966;73.390;2023-04-21T06:01:34;78620.22;;;11.17;100.00
63665;BME280;49820;33.966;73.390;2023-04-21T06:04:38;78598.47;;;11.06;100.00
63665;BME280;49820;33.966;73.390;2023-04-21T06:07:41;78577.00;;;10.36;100.00
63665;BME280;49820;33.966;73.390;2023-04-21T06:10:45;78566.34;;;10.07;100.00
63665;BME280;49820;33.966;73.390;2023-04-21T06:13:14;78609.19;;;10.29;100.00
63665;BME280;49820;33.966;73.390;2023-04-21T06:16:18;78629.66;;;10.10;100.00
63665;BME280;49820;33.966;73.390;2023-04-21T06:18:47;78613.41;;;9.65;100.00
63665;BME280;49820;33.966;73.390;2023-04-21T06:21:16;78615.78;;;9.48;100.00
63665;BME280;49820;33.966;73.390;2023-04-21T06:24:03;78632.88;;;9.28;100.00
63665;BME280;49820;33.966;73.390;2023-04-21T06:26:32;78635.03;;;8.89;100.00
63665;BME280;49820;33.966;73.390;2023-04-21T06:29:00;78631.84;;;8.82;100.00
63665;BME280;49820;33.966;73.390;2023-04-21T06:31:47;78656.00;;;8.72;100.00
63665;BME280;49820;33.966;73.390;2023-04-21T06:34:51;78650.72;;;8.70;100.00
63665;BME280;49820;33.966;73.390;2023-04-21T06:37:55;78634.41;;;8.53;100.00
63665;BME280;49820;33.966;73.390;2023-04-21T06:40:59;78628.50;;;8.49;100.00
63665;BME280;49820;33.966;73.390;2023-04-21T06:43:46;78604.34;;;8.24;100.00
63665;BME280;49820;33.966;73.390;2023-04-21T06:46:32;78649.78;;;8.12;100.00
63665;BME280;49820;33.966;73.390;2023-04-21T06:49:01;78661.59;;;7.82;100.00
63665;BME280;49820;33.966;73.390;2023-04-21T06:51:48;78667.75;;;7.72;100.00
63665;BME280;49820;33.966;73.390;2023-04-21T06:54:33;78697.91;;;7.56;100.00
63665;BME280;49820;33.966;73.390;2023-04-21T06:57:37;78694.25;;;7.35;100.00
63665;BME280;49820;33.966;73.390;2023-04-21T07:00:06;78692.53;;;7.15;100.00
63665;BME280;49820;33.966;73.390;2023-04-21T07:03:10;78704.13;;;6.94;100.00
63665;BME280;49820;33.966;73.390;2023-04-21T07:06:14;78652.34;;;6.41;100.00
63665;BME280;49820;33.966;73.390;2023-04-21T07:09:18;78683.56;;;6.39;100.00
63665;BME280;49820;33.966;73.390;2023-04-21T07:11:47;78660.41;;;6.33;100.00
63665;BME280;49820;33.966;73.390;2023-04-21T07:14:51;78619.72;;;5.98;100.00
63665;BME280;49820;33.966;73.390;2023-04-21T07:17:55;78631.69;;;5.95;100.00
63665;BME280;49820;33.966;73.390;2023-04-21T07:21:00;78621.16;;;6.42;100.00
63665;BME280;49820;33.966;73.390;2023-04-21T07:24:04;78624.06;;;7.61;100.00
63665;BME280;49820;33.966;73.390;2023-04-21T07:27:08;78618.53;;;10.02;100.00
63665;BME280;49820;33.966;73.390;2023-04-21T07:30:13;78619.97;;;11.02;100.00
63665;BME280;49820;33.966;73.390;2023-04-21T07:33:17;78618.81;;;12.54;100.00
63665;BME280;49820;33.966;73.390;2023-04-21T07:36:21;78619.25;;;13.80;100.00
63665;BME280;49820;33.966;73.390;2023-04-21T07:39:25;78622.16;;;15.15;100.00
63665;BME280;49820;33.966;73.390;2023-04-21T07:42:28;78609.47;;;14.62;69.34
63665;BME280;49820;33.966;73.390;2023-04-21T07:45:16;78586.19;;;14.56;76.91
63665;BME280;49820;33.966;73.390;2023-04-21T07:48:19;78627.34;;;15.03;97.06
63665;BME280;49820;33.966;73.390;2023-04-21T07:50:48;78621.94;;;16.47;100.00
63665;BME280;49820;33.966;73.390;2023-04-21T07:53:53;78618.50;;;16.49;65.90
63665;BME280;49820;33.966;73.390;2023-04-21T07:56:56;78604.63;;;16.13;61.28
63665;BME280;49820;33.966;73.390;2023-04-21T08:00:00;78605.28;;;16.28;58.78
63665;BME280;49820;33.966;73.390;2023-04-21T08:03:04;78606.19;;;16.98;68.65
63665;BME280;49820;33.966;73.390;2023-04-21T08:06:08;78608.72;;;17.59;77.55
63665;BME280;49820;33.966;73.390;2023-04-21T08:08:37;78607.34;;;17.87;77.22
63665;BME280;49820;33.966;73.390;2023-04-21T08:11:06;78613.63;;;17.69;49.64
63665;BME280;49820;33.966;73.390;2023-04-21T08:13:55;78607.03;;;17.66;67.98
63665;BME280;49820;33.966;73.390;2023-04-21T08:17:00;78596.03;;;17.70;64.32
63665;BME280;49820;33.966;73.390;2023-04-21T08:20:04;78603.22;;;17.88;64.39
63665;BME280;49820;33.966;73.390;2023-04-21T08:23:08;78600.81;;;19.02;62.73
63665;BME280;49820;33.966;73.390;2023-04-21T08:26:12;78570.09;;;18.55;48.18
63665;BME280;49820;33.966;73.390;2023-04-21T08:29:16;78598.19;;;19.00;71.28
63665;BME280;49820;33.966;73.390;2023-04-21T08:32:20;78598.16;;;19.63;71.65
63665;BME280;49820;33.966;73.390;2023-04-21T08:35:28;78587.38;;;19.87;69.50
63665;BME280;49820;33.966;73.390;2023-04-21T08:37:57;78587.63;;;20.18;69.12
63665;BME280;49820;33.966;73.390;2023-04-21T08:40:32;78580.03;;;20.44;69.33
63665;BME280;49820;33.966;73.390;2023-04-21T08:43:19;78597.97;;;20.03;64.63
63665;BME280;49820;33.966;73.390;2023-04-21T08:46:23;78579.44;;;18.83;69.19
63665;BME280;49820;33.966;73.390;2023-04-21T08:49:29;78591.38;;;17.26;69.30
63665;BME280;49820;33.966;73.390;2023-04-21T08:52:33;78569.63;;;17.43;74.54
63665;BME280;49820;33.966;73.390;2023-04-21T08:55:04;78529.25;;;16.84;68.58
63665;BME280;49820;33.966;73.390;2023-04-21T08:58:09;78580.38;;;15.33;73.18
63665;BME280;49820;33.966;73.390;2023-04-21T09:01:14;78577.28;;;13.89;75.15
63665;BME280;49820;33.966;73.390;2023-04-21T09:04:18;78590.44;;;12.61;78.63
63665;BME280;49820;33.966;73.390;2023-04-21T09:07:33;78582.41;;;14.13;84.65
63665;BME280;49820;33.966;73.390;2023-04-21T09:13:48;78565.09;;;14.96;76.68
63665;BME280;49820;33.966;73.390;2023-04-21T09:17:03;78566.22;;;15.01;80.66
63665;BME280;49820;33.966;73.390;2023-04-21T09:20:21;78556.63;;;14.73;68.97
63665;BME280;49820;33.966;73.390;2023-04-21T09:23:06;78550.47;;;14.41;73.18
63665;BME280;49820;33.966;73.390;2023-04-21T09:26:10;78558.78;;;14.68;72.30
63665;BME280;49820;33.966;73.390;2023-04-21T09:29:14;78526.97;;;15.23;67.30
63665;BME280;49820;33.966;73.390;2023-04-21T09:32:19;78568.03;;;14.90;69.53
63665;BME280;49820;33.966;73.390;2023-04-21T09:35:34;78555.78;;;15.58;69.78
63665;BME280;49820;33.966;73.390;2023-04-21T09:38:38;78556.22;;;16.40;73.73
63665;BME280;49820;33.966;73.390;2023-04-21T09:41:42;78563.78;;;15.91;65.71
63665;BME280;49820;33.966;73.390;2023-04-21T09:44:47;78538.81;;;15.13;64.84
63665;BME280;49820;33.966;73.390;2023-04-21T09:47:55;78564.03;;;14.72;62.48
63665;BME280;49820;33.966;73.390;2023-04-21T09:50:24;78565.38;;;13.29;70.40
63665;BME280;49820;33.966;73.390;2023-04-21T09:53:33;78548.44;;;12.14;77.63
63665;BME280;49820;33.966;73.390;2023-04-21T09:56:42;78527.25;;;12.48;79.44
63665;BME280;49820;33.966;73.390;2023-04-21T09:59:46;78550.31;;;11.31;78.98
63665;BME280;49820;33.966;73.390;2023-04-21T10:02:54;78548.19;;;10.88;91.55
63665;BME280;49820;33.966;73.390;2023-04-21T10:05:59;78562.66;;;10.72;94.47
63665;BME280;49820;33.966;73.390;2023-04-21T10:09:04;78543.25;;;9.97;99.62
63665;BME280;49820;33.966;73.390;2023-04-21T10:12:10;78552.28;;;9.81;100.00
63665;BME280;49820;33.966;73.390;2023-04-21T10:15:35;78568.47;;;10.02;100.00
63665;BME280;49820;33.966;73.390;2023-04-21T10:18:22;78549.91;;;9.71;100.00
63665;BME280;49820;33.966;73.390;2023-04-21T10:21:10;78534.38;;;9.78;100.00
63665;BME280;49820;33.966;73.390;2023-04-21T10:23:57;78554.41;;;9.77;100.00
63665;BME280;49820;33.966;73.390;2023-04-21T10:26:44;78537.97;;;9.10;100.00
63665;BME280;49820;33.966;73.390;2023-04-21T10:29:33;78544.00;;;8.80;100.00
63665;BME280;49820;33.966;73.390;2023-04-21T10:32:41;78544.41;;;8.60;100.00
63665;BME280;49820;33.966;73.390;2023-04-21T10:35:58;78575.56;;;8.67;100.00
63665;BME280;49820;33.966;73.390;2023-04-21T10:39:06;78560.38;;;8.60;100.00
63665;BME280;49820;33.966;73.390;2023-04-21T10:41:36;78544.88;;;8.37;100.00
63665;BME280;49820;33.966;73.390;2023-04-21T10:44:43;78555.75;;;8.25;100.00
63665;BME280;49820;33.966;73.390;2023-04-21T10:47:27;78556.31;;;8.30;100.00
63665;BME280;49820;33.966;73.390;2023-04-21T10:50:31;78561.72;;;8.26;100.00
63665;BME280;49820;33.966;73.390;2023-04-21T10:53:11;78571.38;;;8.09;100.00
63665;BME280;49820;33.966;73.390;2023-04-21T10:56:16;78567.72;;;7.89;100.00
63665;BME280;49820;33.966;73.390;2023-04-21T10:58:45;78573.06;;;7.87;100.00
63665;BME280;49820;33.966;73.390;2023-04-21T11:01:15;78564.13;;;8.03;100.00
63665;BME280;49820;33.966;73.390;2023-04-21T11:03:44;78545.22;;;8.52;100.00
63665;BME280;49820;33.966;73.390;2023-04-21T11:06:31;78563.75;;;9.49;100.00
63665;BME280;49820;33.966;73.390;2023-04-21T11:09:36;78577.47;;;10.42;95.19
63665;BME280;49820;33.966;73.390;2023-04-21T11:12:41;78542.34;;;11.29;94.83
63665;BME280;49820;33.966;73.390;2023-04-21T11:15:11;78575.34;;;12.73;90.32
63665;BME280;49820;33.966;73.390;2023-04-21T11:18:17;78572.53;;;11.48;90.34
63665;BME280;49820;33.966;73.390;2023-04-21T11:20:46;78537.63;;;10.84;94.56
63665;BME280;49820;33.966;73.390;2023-04-21T11:23:52;78580.03;;;10.71;77.27
63665;BME280;49820;33.966;73.390;2023-04-21T11:26:56;78555.28;;;10.73;94.52
63665;BME280;49820;33.966;73.390;2023-04-21T11:29:26;78528.31;;;11.28;85.79
63665;BME280;49820;33.966;73.390;2023-04-21T11:32:17;78548.06;;;11.60;81.43
63665;BME280;49820;33.966;73.390;2023-04-21T11:34:46;78552.19;;;12.01;81.93
63665;BME280;49820;33.966;73.390;2023-04-21T11:37:25;78544.13;;;12.23;86.02
63665;BME280;49820;33.966;73.390;2023-04-21T11:40:29;78555.22;;;12.32;82.86
63665;BME280;49820;33.966;73.390;2023-04-21T11:42:59;78548.00;;;12.68;82.71
63665;BME280;49820;33.966;73.390;2023-04-21T11:46:24;78546.13;;;12.65;78.22
63665;BME280;49820;33.966;73.390;2023-04-21T11:49:28;78540.09;;;12.64;79.47
63665;BME280;49820;33.966;73.390;2023-04-21T11:52:33;78544.91;;;11.99;75.13
63665;BME280;49820;33.966;73.390;2023-04-21T11:55:22;78518.44;;;11.89;71.21
63665;BME280;49820;33.966;73.390;2023-04-21T11:58:26;78552.81;;;12.03;77.10
63665;BME280;49820;33.966;73.390;2023-04-21T12:00:55;78554.19;;;12.23;74.83
63665;BME280;49820;33.966;73.390;2023-04-21T12:03:25;78553.38;;;11.62;74.30
63665;BME280;49820;33.966;73.390;2023-04-21T12:06:22;78555.88;;;11.23;75.40
63665;BME280;49820;33.966;73.390;2023-04-21T12:09:28;78573.59;;;10.87;76.55
63665;BME280;49820;33.966;73.390;2023-04-21T12:12:36;78576.56;;;10.77;81.02
63665;BME280;49820;33.966;73.390;2023-04-21T12:15:08;78559.56;;;10.12;84.63
63665;BME280;49820;33.966;73.390;2023-04-21T12:18:12;78572.34;;;9.80;91.73
63665;BME280;49820;33.966;73.390;2023-04-21T12:20:49;78571.44;;;9.63;93.91
63665;BME280;49820;33.966;73.390;2023-04-21T12:23:54;78567.88;;;9.44;97.81
63665;BME280;49820;33.966;73.390;2023-04-21T12:26:57;78550.22;;;8.99;99.73
63665;BME280;49820;33.966;73.390;2023-04-21T12:29:27;78564.72;;;9.06;99.39
63665;BME280;49820;33.966;73.390;2023-04-21T12:32:30;78568.84;;;8.68;94.23
63665;BME280;49820;33.966;73.390;2023-04-21T12:35:17;78570.31;;;8.28;92.48
63665;BME280;49820;33.966;73.390;2023-04-21T12:38:21;78552.31;;;7.96;91.48
63665;BME280;49820;33.966;73.390;2023-04-21T12:41:25;78561.47;;;8.03;93.40
63665;BME280;49820;33.966;73.390;2023-04-21T12:44:10;78570.25;;;7.95;94.40
63665;BME280;49820;33.966;73.390;2023-04-21T12:50:55;78582.75;;;7.68;95.65
63665;BME280;49820;33.966;73.390;2023-04-21T12:53:59;78579.59;;;7.57;100.00
63665;BME280;49820;33.966;73.390;2023-04-21T12:56:28;78583.50;;;7.62;99.06
63665;BME280;49820;33.966;73.390;2023-04-21T12:59:32;78585.13;;;7.45;100.00
63665;BME280;49820;33.966;73.390;2023-04-21T13:02:55;78576.06;;;7.30;100.00
63665;BME280;49820;33.966;73.390;2023-04-21T13:05:24;78592.22;;;7.18;100.00
63665;BME280;49820;33.966;73.390;2023-04-21T13:07:53;78589.44;;;7.26;100.00
63665;BME280;49820;33.966;73.390;2023-04-21T13:10:40;78581.06;;;7.07;100.00
63665;BME280;49820;33.966;73.390;2023-04-21T13:13:44;78539.69;;;6.79;100.00
63665;BME280;49820;33.966;73.390;2023-04-21T13:16:48;78578.50;;;7.03;100.00
63665;BME280;49820;33.966;73.390;2023-04-21T13:19:34;78564.84;;;6.84;100.00
63665;BME280;49820;33.966;73.390;2023-04-21T13:22:02;78580.97;;;6.70;100.00
63665;BME280;49820;33.966;73.390;2023-04-21T13:24:50;78568.28;;;6.77;98.53
63665;BME280;49820;33.966;73.390;2023-04-21T13:27:54;78576.63;;;6.96;100.00
63665;BME280;49820;33.966;73.390;2023-04-21T13:30:58;78579.66;;;6.71;100.00
63665;BME280;49820;33.966;73.390;2023-04-21T13:33:27;78586.38;;;6.64;100.00
63665;BME280;49820;33.966;73.390;2023-04-21T13:36:31;78563.53;;;6.38;100.00
63665;BME280;49820;33.966;73.390;2023-04-21T13:39:19;78573.25;;;6.54;100.00
63665;BME280;49820;33.966;73.390;2023-04-21T13:42:23;78596.41;;;6.58;100.00
63665;BME280;49820;33.966;73.390;2023-04-21T13:44:52;78544.84;;;5.97;100.00
63665;BME280;49820;33.966;73.390;2023-04-21T13:47:56;78598.00;;;6.40;100.00
63665;BME280;49820;33.966;73.390;2023-04-21T13:51:00;78609.75;;;6.51;98.15
63665;BME280;49820;33.966;73.390;2023-04-21T13:53:48;78589.31;;;6.42;100.00
63665;BME280;49820;33.966;73.390;2023-04-21T13:56:52;78614.19;;;6.69;95.11
63665;BME280;49820;33.966;73.390;2023-04-21T13:59:21;78610.28;;;6.62;96.70
63665;BME280;49820;33.966;73.390;2023-04-21T14:02:09;78610.28;;;6.62;94.41
63665;BME280;49820;33.966;73.390;2023-04-21T14:04:56;78620.88;;;6.64;96.83
63665;BME280;49820;33.966;73.390;2023-04-21T14:08:00;78617.63;;;6.60;94.10
63665;BME280;49820;33.966;73.390;2023-04-21T14:11:04;78631.53;;;6.60;93.00
63665;BME280;49820;33.966;73.390;2023-04-21T14:13:51;78616.53;;;6.42;93.25
63665;BME280;49820;33.966;73.390;2023-04-21T14:16:56;78628.44;;;6.43;96.04
63665;BME280;49820;33.966;73.390;2023-04-21T14:19:43;78618.59;;;6.36;90.93
63665;BME280;49820;33.966;73.390;2023-04-21T14:22:47;78630.16;;;6.65;88.54
63665;BME280;49820;33.966;73.390;2023-04-21T14:25:50;78620.28;;;6.60;90.71
63665;BME280;49820;33.966;73.390;2023-04-21T14:28:40;78615.81;;;6.46;88.31
63665;BME280;49820;33.966;73.390;2023-04-21T14:31:44;78613.09;;;6.50;85.70
63665;BME280;49820;33.966;73.390;2023-04-21T14:34:13;78593.44;;;6.33;94.52
63665;BME280;49820;33.966;73.390;2023-04-21T14:37:17;78625.03;;;6.51;87.23
63665;BME280;49820;33.966;73.390;2023-04-21T14:39:46;78640.06;;;6.69;83.62
63665;BME280;49820;33.966;73.390;2023-04-21T14:42:49;78617.34;;;6.31;97.70
63665;BME280;49820;33.966;73.390;2023-04-21T14:45:53;78618.81;;;6.20;97.01
63665;BME280;49820;33.966;73.390;2023-04-21T14:48:22;78603.84;;;5.96;93.72
63665;BME280;49820;33.966;73.390;2023-04-21T14:51:26;78615.19;;;5.90;96.63
63665;BME280;49820;33.966;73.390;2023-04-21T14:54:14;78633.03;;;5.94;98.96
63665;BME280;49820;33.966;73.390;2023-04-21T14:57:18;78638.38;;;5.90;96.45
63665;BME280;49820;33.966;73.390;2023-04-21T15:00:24;78630.97;;;6.00;94.60
63665;BME280;49820;33.966;73.390;2023-04-21T15:03:28;78640.09;;;6.13;91.89
63665;BME280;49820;33.966;73.390;2023-04-21T15:06:31;78641.47;;;6.08;97.15
63665;BME280;49820;33.966;73.390;2023-04-21T15:09:01;78609.38;;;5.75;100.00
63665;BME280;49820;33.966;73.390;2023-04-21T15:12:06;78633.75;;;5.88;100.00
63665;BME280;49820;33.966;73.390;2023-04-21T15:14:35;78643.09;;;5.79;100.00
63665;BME280;49820;33.966;73.390;2023-04-21T15:17:04;78636.63;;;5.64;100.00
63665;BME280;49820;33.966;73.390;2023-04-21T15:19:51;78636.63;;;5.66;100.00
63665;BME280;49820;33.966;73.390;2023-04-21T15:22:55;78637.88;;;5.73;100.00
63665;BME280;49820;33.966;73.390;2023-04-21T15:25:59;78652.97;;;5.91;96.89
63665;BME280;49820;33.966;73.390;2023-04-21T15:29:03;78634.97;;;5.99;91.91
63665;BME280;49820;33.966;73.390;2023-04-21T15:32:06;78631.75;;;5.91;91.44
63665;BME280;49820;33.966;73.390;2023-04-21T15:35:10;78623.88;;;5.81;94.67
63665;BME280;49820;33.966;73.390;2023-04-21T15:37:58;78643.13;;;5.77;99.91
63665;BME280;49820;33.966;73.390;2023-04-21T15:41:01;78632.75;;;5.55;100.00
63665;BME280;49820;33.966;73.390;2023-04-21T15:43:49;78632.84;;;5.45;100.00
63665;BME280;49820;33.966;73.390;2023-04-21T15:46:53;78653.88;;;5.61;100.00
63665;BME280;49820;33.966;73.390;2023-04-21T15:49:22;78639.53;;;5.40;100.00
63665;BME280;49820;33.966;73.390;2023-04-21T15:52:27;78634.28;;;5.33;100.00
63665;BME280;49820;33.966;73.390;2023-04-21T15:54:56;78654.75;;;5.43;100.00
63665;BME280;49820;33.966;73.390;2023-04-21T15:57:41;78608.00;;;5.11;100.00
63665;BME280;49820;33.966;73.390;2023-04-21T16:00:45;78647.63;;;5.23;100.00
63665;BME280;49820;33.966;73.390;2023-04-21T16:03:15;78645.09;;;5.09;100.00
63665;BME280;49820;33.966;73.390;2023-04-21T16:06:19;78661.53;;;5.20;100.00
63665;BME280;49820;33.966;73.390;2023-04-21T16:08:49;78673.50;;;5.19;100.00
63665;BME280;49820;33.966;73.390;2023-04-21T16:11:37;78655.09;;;5.01;100.00
63665;BME280;49820;33.966;73.390;2023-04-21T16:14:40;78641.94;;;4.88;100.00
63665;BME280;49820;33.966;73.390;2023-04-21T16:17:44;78662.38;;;5.02;100.00
63665;BME280;49820;33.966;73.390;2023-04-21T16:20:48;78663.28;;;5.48;100.00
63665;BME280;49820;33.966;73.390;2023-04-21T16:23:52;78653.81;;;5.69;100.00
63665;BME280;49820;33.966;73.390;2023-04-21T16:26:55;78657.72;;;5.76;95.34
63665;BME280;49820;33.966;73.390;2023-04-21T16:29:59;78682.25;;;5.74;100.00
63665;BME280;49820;33.966;73.390;2023-04-21T16:32:46;78665.97;;;5.46;100.00
63665;BME280;49820;33.966;73.390;2023-04-21T16:35:50;78648.97;;;5.20;100.00
63665;BME280;49820;33.966;73.390;2023-04-21T16:38:24;78653.66;;;5.14;100.00
63665;BME280;49820;33.966;73.390;2023-04-21T16:41:28;78672.16;;;5.18;100.00
63665;BME280;49820;33.966;73.390;2023-04-21T16:44:15;78676.84;;;5.11;100.00
63665;BME280;49820;33.966;73.390;2023-04-21T16:47:01;78665.09;;;4.92;100.00
63665;BME280;49820;33.966;73.390;2023-04-21T16:50:05;78666.47;;;4.83;100.00
63665;BME280;49820;33.966;73.390;2023-04-21T16:52:35;78660.47;;;4.88;100.00
63665;BME280;49820;33.966;73.390;2023-04-21T16:55:39;78672.25;;;5.10;100.00
63665;BME280;49820;33.966;73.390;2023-04-21T16:58:08;78654.34;;;5.12;100.00
63665;BME280;49820;33.966;73.390;2023-04-21T17:01:12;78662.84;;;5.27;100.00
63665;BME280;49820;33.966;73.390;2023-04-21T17:04:16;78662.13;;;5.28;100.00
63665;BME280;49820;33.966;73.390;2023-04-21T17:07:20;78646.00;;;5.55;100.00
63665;BME280;49820;33.966;73.390;2023-04-21T17:10:24;78646.16;;;5.41;100.00
63665;BME280;49820;33.966;73.390;2023-04-21T17:13:29;78637.78;;;5.12;100.00
63665;BME280;49820;33.966;73.390;2023-04-21T17:15:57;78647.09;;;5.11;100.00
63665;BME280;49820;33.966;73.390;2023-04-21T17:19:01;78641.84;;;5.03;100.00
63665;BME280;49820;33.966;73.390;2023-04-21T17:22:05;78650.47;;;4.99;100.00
63665;BME280;49820;33.966;73.390;2023-04-21T17:25:10;78637.34;;;4.85;100.00
63665;BME280;49820;33.966;73.390;2023-04-21T17:28:13;78651.25;;;4.85;100.00
63665;BME280;49820;33.966;73.390;2023-04-21T17:31:18;78667.13;;;4.83;100.00
63665;BME280;49820;33.966;73.390;2023-04-21T17:34:21;78675.09;;;4.79;100.00
63665;BME280;49820;33.966;73.390;2023-04-21T17:36:53;78672.44;;;4.83;100.00
63665;BME280;49820;33.966;73.390;2023-04-21T17:39:21;78654.66;;;4.72;100.00
63665;BME280;49820;33.966;73.390;2023-04-21T17:42:08;78654.63;;;4.74;100.00
63665;BME280;49820;33.966;73.390;2023-04-21T17:45:12;78678.88;;;5.09;100.00
63665;BME280;49820;33.966;73.390;2023-04-21T17:48:00;78660.34;;;5.05;100.00
63665;BME280;49820;33.966;73.390;2023-04-21T17:51:04;78680.13;;;5.14;100.00